Addy, Washington
Current Conditions -  °F | °C
As of 5:29 PM on Wednesday 22 Oct 2014 (Local Time) from KDEW Reporting Station
Moderate Rain Moderate Rain  
Wind Chill: 49°   Ceiling: 5000
Heat Index: 49°   Visibility: 4mi
Dew Point: 48°   Wind: 3mph
Humidity: 97%   Direction: 40°NE
Pressure: 29.83"   Gusts: NA
Location:  48.36°N, 117.84°W
Report Text: KDEW 230029Z AUTO 04003KT 4SM RA BR SCT043 OVC050 09/09 A2983 RMK AO2 P0004 T00940089
Loading
Personal Weather Stations






























Interactive Weather Map
Tropical Storm Tracking
New forecast layout! Learn more

10-Day Weather Forecast

Advertisements
Track Severe Weather on mobile